Главная страница
METAR-TAF:

METAR-TAF

Аэропорты :

Запорожье, Украина

широта: 47-52-02N, долгота: 035-18-59E, высота над уровнем моря: 114 м

Текущие метеонаблюдения

Эта сводка был подготовлена 37 минут назад, в 22:00 UTC
Ветер 10 Узел от северо-восточный, изменяющийся между северо-северо-восточный и восточный
Температура 26°C
Влажность 51%
Давление 1014 hPa
Видимость 10 км и более
Нет облачности ниже 1500 м, и нет кучево-дождевой облачности

METAR: UKDE 172200Z 05005MPS 020V090 CAVOK 26/15 Q1014 R02R/CLRD70 NOSIG

Время: 01:37 (22:37 UTC)

Прогноз

Эта сводка был подготовлена 2 часа и 34 минут назад, в 20:03 UTC
Прогноз действительный с 17-го 21 UTC до 18-го 06 UTC
Ветер 10 Узел от северо-северо-восточный с порывами до 19 Узел
Видимость 10 км и более
Отдельные облака на высоте 3000 фута, Кучево-дождевые.

TAF: UKDE 172003Z 1721/1806 03005G10MPS 9999 SCT030CB TX27/1806Z TN20/1803Z

Метеонаблюдения и прогнозы для более 4000 аэропортов (сводки METAR и TAF).

Имеющиеся станции представлены на карте желтыми и красными точками.

Чтобы увидеть название станции, наведите на нее мышь.

Затем щелкните, чтобы увидеть метеонаблюдения и метеопрогнозы.

Управление картой: чтобы увеличить масштаб, щелкните зеленые кнопки с черным крестиком; чтобы уменьшить масштаб, щелкните зеленую кнопку с тире; для просмотра соседних карт щелкайте зеленые стрелки.


METAR-TAF: